Current Weather

Falcon Fld

Mesa, Arizona (KFFZ)

Report from: Wednesday, May 29, 2024 1:54 AM MST
Current time: Wednesday, May 29, 2024 2:17 AM MST

Nearby weather – Weather history – Daily summaries
Weather forecast

Temperature25.6°C (78.1°F)
Dew point1.7°C (35.1°F)
Winds 7 kts (3.6 m/s, 8.1 mph) South-Southeast (150°)
Visibility10 mi. (16.1 km)
Clouds Sky clear
Altimeter29.85 in.Hg (1011 mB)
Relative humidity21 %
Density altitude1,499 ft. (457 m)
Sea-level pressure100.8 kPa (1008 mB, 29.78 in.Hg)
Remarks Fully automated report
Automated weather observing station with precipitation discriminator
Pressure falling, then rising
Flight conditions Visual Meteorological Conditions
Raw dataKFFZ 290854Z AUTO 15007KT 10SM CLR 26/02 A2985 RMK AO2 SLP083 T02560017 55003
An error has occurred. This application may no longer respond until reloaded. Reload 🗙